Latest Weather Observations for Pirlangimpi

IDD60901

Issued at 1:51 pm CST Monday 5 December 2016 (issued every 10 minutes, with the page automatically refreshed every 10 minutes)

About weather observations | Map of Darwin area stations | Latest observations for Darwin area | Other Formats
Station Details ID: 014142 Name: PIRLANGIMPI AIRPORT Lat: -11.40 Lon: 130.42 Height: 18.3 m
Data from the previous 72 hours. | See also: Recent months at Pirlangimpi
Date/Time
CST
Temp
°C
App
Temp
°C
Dew
Point
°C
Rel
Hum
%
Delta-T
°C
Wind Press
QNH
hPa
Press
MSL
hPa
Rain since
9am
mm
Dir  Spd
km/h
Gust
km/h
Spd
kts
Gust
kts
05/01:30pm 32.4 37.7 24.4 62 5.6 NNW 4 6 2 3 1008.0 1007.9 0.0
05/01:00pm 32.3 37.6 24.3 62 5.6 NNW 4 6 2 3 1008.4 1008.3 0.0
05/12:30pm 31.4 35.8 23.5 63 5.5 N 6 13 3 7 1008.6 1008.5 0.0
05/12:00pm 31.5 36.2 23.9 64 5.3 N 6 11 3 6 1008.9 1008.8 0.0
05/11:30am 31.6 36.5 23.7 63 5.5 NNE 4 11 2 6 1009.1 1009.0 0.0
05/11:00am 30.9 36.1 24.8 70 4.3 S 6 11 3 6 1009.5 1009.4 0.0
05/10:30am 30.4 35.4 24.8 72 3.9 SSW 7 11 4 6 1009.8 1009.7 0.0
05/10:00am 30.3 34.9 24.7 72 3.9 SSW 9 13 5 7 1009.8 1009.7 0.0
05/09:30am 30.7 36.0 25.3 73 3.8 SW 7 11 4 6 1010.0 1009.9 0.0
05/09:00am 30.3 35.4 24.7 72 3.9 S 6 9 3 5 1010.1 1010.0 0.2
05/08:30am 29.7 35.0 24.3 73 3.8 S 4 6 2 3 1010.0 1009.9 0.2
05/08:00am 28.6 34.0 23.9 75 3.2 S 2 4 1 2 1009.7 1009.6 0.2
05/07:30am 27.3 32.4 24.0 82 2.3 SE 4 6 2 3 1009.7 1009.6 0.2
05/07:00am 25.5 30.4 23.6 89 1.3 SE 4 7 2 4 1009.4 1009.3 0.2
05/06:30am 24.3 29.5 22.9 92 0.9 CALM 0 0 0 0 1009.0 1008.9 0.2
05/06:00am 24.2 29.4 22.8 92 0.9 CALM 0 0 0 0 1008.6 1008.5 0.2
05/05:30am 24.4 29.8 23.2 93 0.8 CALM 0 0 0 0 1008.3 1008.2 0.2
05/05:00am 24.4 29.8 23.2 93 0.8 CALM 0 0 0 0 1007.9 1007.8 0.2
05/04:30am 24.4 29.8 23.2 93 0.8 CALM 0 0 0 0 1007.7 1007.6 0.2
05/04:00am 24.4 29.8 23.2 93 0.8 CALM 0 0 0 0 1007.6 1007.5 0.2
05/03:30am 24.5 29.8 23.1 92 0.9 CALM 0 0 0 0 1007.6 1007.5 0.2
05/03:00am 24.6 29.9 23.0 91 1.1 CALM 0 0 0 0 1007.7 1007.6 0.2
05/02:30am 24.6 29.8 22.8 90 1.2 CALM 0 0 0 0 1007.6 1007.5 0.2
05/02:00am 24.7 29.9 22.9 90 1.2 CALM 0 0 0 0 1007.6 1007.5 0.2
05/01:30am 25.0 30.3 23.1 89 1.3 CALM 0 0 0 0 1008.0 1007.9 0.2
05/01:00am 25.3 30.2 23.0 87 1.6 NNE 2 4 1 2 1008.2 1008.1 0.2
05/12:30am 25.1 30.3 22.8 87 1.6 CALM 0 0 0 0 1008.6 1008.5 0.2
05/12:00am 25.6 30.4 22.9 85 1.8 NE 2 4 1 2 1008.8 1008.7 0.2
 
Date/Time
CST
Temp
°C
App
Temp
°C
Dew
Point
°C
Rel
Hum
%
Delta-T
°C
Wind Press
QNH
hPa
Press
MSL
hPa
Rain since
9am
mm
Dir  Spd
km/h
Gust
km/h
Spd
kts
Gust
kts
04/11:30pm 25.8 30.5 22.7 83 2.1 NE 2 4 1 2 1009.1 1009.0 0.2
04/11:00pm 26.0 30.6 22.5 81 2.4 NNE 2 6 1 3 1009.2 1009.1 0.2
04/10:30pm 26.5 31.0 22.3 78 2.8 NNE 2 4 1 2 1009.2 1009.1 0.2
04/10:00pm 27.2 31.7 22.2 74 3.4 NE 2 4 1 2 1009.0 1008.9 0.2
04/09:30pm 27.6 31.7 22.3 73 3.6 NE 4 6 2 3 1009.2 1009.1 0.2
04/09:00pm 27.8 32.0 22.5 73 3.6 NE 4 7 2 4 1008.9 1008.8 0.2
04/08:30pm 28.1 32.6 23.0 74 3.5 NE 4 7 2 4 1008.8 1008.7 0.2
04/08:00pm 28.5 33.0 23.0 72 3.8 NE 4 9 2 5 1008.5 1008.4 0.2
04/07:30pm 28.8 33.7 23.0 71 4.0 NNE 2 6 1 3 1008.4 1008.3 0.2
04/07:00pm 29.3 33.4 23.0 69 4.3 NNE 6 7 3 4 1008.0 1007.9 0.2
04/06:30pm 29.8 33.9 23.0 67 4.7 NNE 6 13 3 7 1007.8 1007.7 0.2
04/06:00pm 30.5 34.6 22.9 64 5.2 NE 6 11 3 6 1007.3 1007.2 0.2
04/05:30pm 30.9 34.8 22.5 61 5.7 NNE 6 11 3 6 1007.4 1007.3 0.2
04/05:00pm 32.3 35.9 22.4 56 6.8 NE 7 17 4 9 1007.1 1007.0 0.2
04/04:30pm 33.1 37.3 23.4 56 6.7 NNE 7 17 4 9 1007.0 1006.9 0.2
04/04:00pm 33.8 38.6 24.1 57 6.8 NNE 6 11 3 6 1007.1 1007.0 0.2
04/03:30pm 32.5 36.8 23.7 59 6.1 NNE 7 13 4 7 1007.4 1007.3 0.2
04/03:00pm 33.4 37.6 23.4 55 7.0 NE 7 17 4 9 1007.6 1007.5 0.2
04/02:30pm 34.3 38.2 23.6 53 7.5 NE 9 17 5 9 1007.8 1007.7 0.2
04/02:00pm 34.3 37.9 23.0 51 7.8 NE 9 15 5 8 1007.9 1007.8 0.2
04/01:30pm 34.1 37.6 22.8 51 7.8 NE 9 19 5 10 1008.5 1008.4 0.2
04/01:00pm 34.1 37.4 23.2 53 7.6 ENE 11 20 6 11 1008.8 1008.7 0.2
04/12:30pm 33.4 36.9 22.8 53 7.3 E 9 20 5 11 1009.1 1009.0 0.2
04/12:00pm 33.2 36.7 22.9 54 7.1 ENE 9 22 5 12 1009.5 1009.4 0.2
04/11:30am 31.9 34.4 21.7 54 6.9 ENE 11 19 6 10 1009.8 1009.7 0.2
04/11:00am 32.8 36.3 22.9 56 6.8 ENE 9 19 5 10 1010.1 1010.0 0.2
04/10:30am 32.5 35.5 22.6 56 6.8 ESE 11 17 6 9 1010.4 1010.3 0.2
04/10:00am 32.3 35.8 23.5 59 6.1 E 11 20 6 11 1010.5 1010.4 0.2
04/09:30am 31.6 35.7 24.5 66 5.0 E 11 19 6 10 1010.4 1010.3 0.2
04/09:00am 30.4 35.2 24.5 70 4.1 ESE 7 15 4 8 1010.4 1010.3 29.0
04/08:30am 29.7 35.0 25.2 77 3.2 E 7 13 4 7 1010.5 1010.4 29.0
04/08:00am 28.1 32.9 24.5 81 2.5 ESE 7 11 4 6 1010.4 1010.3 29.0
04/07:30am 26.9 31.8 24.4 86 1.7 ESE 6 9 3 5 1010.4 1010.3 29.0
04/07:00am 25.5 30.6 24.1 92 1.0 ESE 4 6 2 3 1010.2 1010.1 29.0
04/06:30am 24.9 30.2 23.7 93 0.8 S 2 4 1 2 1009.7 1009.6 29.0
04/06:00am 25.2 30.4 24.2 94 0.7 SE 4 4 2 2 1009.2 1009.1 29.0
04/05:30am 24.9 29.7 24.2 96 0.5 SE 6 6 3 3 1008.8 1008.7 29.0
04/05:00am 24.4 29.9 23.4 94 0.7 CALM 0 0 0 0 1008.4 1008.3 29.0
04/04:30am 24.4 29.9 23.4 94 0.7 CALM 0 0 0 0 1008.0 1007.9 29.0
04/04:00am 24.4 29.9 23.4 94 0.7 CALM 0 4 0 2 1007.8 1007.7 29.0
04/03:30am 24.7 30.4 23.7 94 0.7 CALM 0 0 0 0 1008.0 1007.9 29.0
04/03:00am 25.0 30.8 24.0 94 0.7 CALM 0 0 0 0 1008.2 1008.1 29.0
04/02:30am 24.9 30.6 23.7 93 0.8 CALM 0 0 0 0 1008.4 1008.3 29.0
04/02:00am 25.3 31.1 23.9 92 1.0 CALM 0 0 0 0 1008.6 1008.5 29.0
04/01:30am 25.6 31.4 24.0 91 1.1 CALM 0 0 0 0 1008.8 1008.7 29.0
04/01:00am 26.1 32.0 24.1 89 1.4 CALM 0 0 0 0 1009.2 1009.1 29.0
04/12:30am 26.2 32.0 24.6 91 1.1 SE 2 4 1 2 1009.7 1009.6 29.0
04/12:00am 26.3 32.2 24.7 91 1.1 SE 2 4 1 2 1010.3 1010.2 29.0
 
Date/Time
CST
Temp
°C
App
Temp
°C
Dew
Point
°C
Rel
Hum
%
Delta-T
°C
Wind Press
QNH
hPa
Press
MSL
hPa
Rain since
9am
mm
Dir  Spd
km/h
Gust
km/h
Spd
kts
Gust
kts
03/11:30pm 26.1 32.1 24.9 93 0.8 ESE 2 4 1 2 1010.6 1010.5 29.0
03/11:00pm 26.3 32.3 24.9 92 1.0 E 2 4 1 2 1010.6 1010.5 29.0
03/10:30pm 26.4 32.4 24.8 91 1.1 NE 2 2 1 1 1010.9 1010.8 29.0
03/10:00pm 26.8 32.9 25.0 90 1.3 SE 2 4 1 2 1010.9 1010.8 29.0
03/09:30pm 26.5 32.6 25.1 92 1.0 ESE 2 4 1 2 1010.5 1010.4 29.0
03/09:00pm 26.5 32.9 24.9 91 1.1 CALM 0 0 0 0 1010.1 1010.0 29.0
03/08:30pm 26.6 33.1 25.0 91 1.1 CALM 0 0 0 0 1009.8 1009.7 29.0
03/08:00pm 27.0 33.1 25.0 89 1.4 ESE 2 4 1 2 1009.8 1009.7 29.0
03/07:30pm 27.1 33.7 25.3 90 1.3 CALM 0 0 0 0 1009.6 1009.5 29.0
03/07:00pm 27.1 33.7 25.3 90 1.3 CALM 0 0 0 0 1009.1 1009.0 29.0
03/06:30pm 27.5 34.0 25.1 87 1.7 CALM 0 0 0 0 1008.7 1008.6 29.0
03/06:00pm 27.9 34.4 25.1 85 2.0 CALM 0 0 0 0 1008.3 1008.2 29.0
03/05:30pm 28.0 33.6 24.8 83 2.2 S 4 6 2 3 1008.4 1008.3 29.0
03/05:00pm 28.2 33.1 24.4 80 2.6 SSW 6 9 3 5 1008.5 1008.4 29.0
03/04:30pm 28.5 34.1 24.9 81 2.5 S 4 6 2 3 1008.5 1008.4 29.0
03/04:00pm 28.6 34.5 25.4 83 2.3 SE 4 4 2 2 1008.4 1008.3 29.0
03/03:30pm 28.5 34.3 25.1 82 2.4 S 4 6 2 3 1008.5 1008.4 29.0
03/03:00pm 27.8 33.1 25.0 85 2.0 S 6 7 3 4 1008.5 1008.4 29.0
03/02:30pm 26.9 32.8 25.3 91 1.1 SE 4 7 2 4 1008.6 1008.5 29.0
03/02:00pm 26.7 32.5 25.1 91 1.1 SSE 4 7 2 4 1009.5 1009.4 28.8
03/01:30pm 25.9 31.5 24.9 94 0.7 S 4 6 2 3 1009.3 1009.2 28.8
03/01:00pm 25.3 31.0 24.4 95 0.6 WSW 2 6 1 3 1010.0 1009.9 28.8
03/12:30pm 25.4 28.5 23.6 90 1.2 SE 13 39 7 21 1010.5 1010.4 17.4
03/12:00pm 30.2 34.4 24.8 73 3.8 NE 11 26 6 14 1009.9 1009.8 1.0
03/11:30am 33.6 38.7 25.0 60 6.1 ENE 7 13 4 7 1010.3 1010.2 0.0
03/11:00am 31.7 35.8 24.0 63 5.4 ENE 9 15 5 8 1010.3 1010.2 0.0
03/10:30am 31.5 36.8 24.4 66 5.0 N 4 7 2 4 1010.7 1010.6 0.0
03/10:00am 31.5 37.0 24.6 67 4.8 NW 4 9 2 5 1010.8 1010.7 0.0
03/09:30am 30.0 35.1 23.4 67 4.5 N 2 4 1 2 1010.7 1010.6 0.0
03/09:00am 30.3 35.3 23.2 65 4.9 N 2 6 1 3 1010.6 1010.5 -
03/08:30am 29.0 33.1 23.0 70 4.1 N 6 9 3 5 1010.1 1010.0 -
03/08:00am 27.8 32.4 23.8 79 2.8 NNE 6 13 3 7 1010.1 1010.0 -
03/07:30am 27.1 32.8 24.4 85 1.9 ENE 2 4 1 2 1009.8 1009.7 -
03/07:00am 26.3 31.6 24.3 89 1.4 ENE 4 6 2 3 1009.3 1009.2 -
03/06:30am 25.9 31.0 24.1 90 1.2 ENE 4 6 2 3 1008.9 1008.8 -
03/06:00am 26.1 31.2 24.0 88 1.4 NE 4 6 2 3 1008.6 1008.5 -
03/05:30am 26.2 31.7 24.1 88 1.4 NNE 2 6 1 3 1008.4 1008.3 -
03/05:00am 26.3 31.8 24.7 91 1.1 NNE 4 7 2 4 1008.3 1008.2 -
03/04:30am 26.0 31.8 24.6 92 1.0 NNE 2 6 1 3 1008.0 1007.9 -
03/04:00am 25.9 32.0 24.5 92 1.0 CALM 0 0 0 0 1007.8 1007.7 -
03/03:30am 26.1 32.2 24.5 91 1.1 CALM 0 0 0 0 1008.0 1007.9 -
03/03:00am 26.3 32.1 24.5 90 1.2 NE 2 4 1 2 1008.1 1008.0 -
03/02:30am 26.2 31.9 24.4 90 1.2 NE 2 6 1 3 1008.1 1008.0 -
03/02:00am 26.1 31.7 24.3 90 1.2 NNE 2 6 1 3 1008.3 1008.2 -
03/01:30am 25.9 31.2 24.3 91 1.1 NNE 4 6 2 3 1008.8 1008.7 -
03/01:00am 26.0 31.2 24.2 90 1.2 NE 4 6 2 3 1008.9 1008.8 -
03/12:30am 25.7 30.8 24.1 91 1.1 NE 4 6 2 3 1009.0 1008.9 -
03/12:00am 25.7 30.7 23.9 90 1.2 ENE 4 4 2 2 1009.5 1009.4 -
 
Date/Time
CST
Temp
°C
App
Temp
°C
Dew
Point
°C
Rel
Hum
%
Delta-T
°C
Wind Press
QNH
hPa
Press
MSL
hPa
Rain since
9am
mm
Dir  Spd
km/h
Gust
km/h
Spd
kts
Gust
kts
02/11:30pm 25.7 31.4 23.7 89 1.4 CALM 0 0 0 0 1009.6 1009.5 -
02/11:00pm 25.9 31.2 24.3 91 1.1 NE 4 6 2 3 1009.8 1009.7 -
02/10:30pm 26.1 31.9 24.0 88 1.4 CALM 0 0 0 0 1010.0 1009.9 -
02/10:00pm 26.6 32.1 24.1 86 1.7 SSE 2 4 1 2 1009.9 1009.8 0.0
02/09:30pm 26.5 32.3 24.0 86 1.7 CALM 0 2 0 1 1009.7 1009.6 0.0
02/09:00pm 26.6 31.7 24.1 86 1.7 ESE 4 7 2 4 1009.4 1009.3 0.0
02/08:30pm 26.8 31.8 23.9 84 2.0 ENE 4 6 2 3 1008.7 1008.6 0.0
02/08:00pm 27.0 32.7 23.7 82 2.3 CALM 0 4 0 2 1008.0 1007.9 0.0
02/07:30pm 27.4 32.8 23.2 78 2.9 CALM 0 0 0 0 1007.9 1007.8 0.0
02/07:00pm 27.5 30.7 23.1 77 3.0 SE 11 22 6 12 1007.9 1007.8 0.0
02/06:30pm 28.1 32.8 24.3 80 2.6 S 7 13 4 7 1008.1 1008.0 0.0
02/06:00pm 31.1 36.5 24.5 68 4.6 NNE 4 7 2 4 1007.4 1007.3 0.0
02/05:30pm 32.6 37.7 24.1 61 6.0 NNE 4 7 2 4 1006.9 1006.8 0.0
02/05:00pm 31.3 36.2 24.4 66 4.8 NE 6 13 3 7 1006.6 1006.5 0.0
02/04:30pm 32.4 37.3 24.7 64 5.4 N 7 15 4 8 1006.4 1006.3 0.0
02/04:00pm 33.1 38.0 24.6 61 6.0 NNE 7 13 4 7 1006.7 1006.6 0.0
02/03:30pm 34.0 38.9 24.6 58 6.6 NE 7 13 4 7 1006.9 1006.8 0.0
02/03:00pm 33.3 37.6 23.6 56 6.8 NE 7 13 4 7 1007.1 1007.0 0.0
02/02:30pm 34.8 39.9 24.7 55 7.2 NE 6 11 3 6 1007.0 1006.9 0.0
02/02:00pm 33.4 37.6 23.4 55 6.9 NNE 7 13 4 7 1007.3 1007.2 0.0

Latest Capital City Observations: Canberra | Sydney | Melbourne | Brisbane | Adelaide | Perth | Hobart | Darwin

Other Formats:

Comma delimited format used in spreadsheet applications
http://www.bom.gov.au/fwo/IDD60901/IDD60901.94119.axf

JavaScript Object Notation format (JSON) in row-major order
http://www.bom.gov.au/fwo/IDD60901/IDD60901.94119.json